Byron, IL (61010)

11:20 PM CDT on October 24, 2014 (GMT -0500)
Highland Elementary | Change Station
CLOSE
Current Station
Personal Weather Station
Location: Stillman Valley, IL
Elevation: 755 ft
Nearby Weather Stations

Elev 755 ft 42.10 °N, 89.18 °W | Updated 40 seconds ago

Overcast
Overcast
59.6 °F
Feels Like 59.6 °F
N
3.0
Wind Variable Wind from SW
Gusts 7.0 mph

Today
High -- | Low -- °F
--% Chance of Precip.
Yesterday
High -- | Low -- °F
Precip. -- in
7:20 AM 6:01 PM
New Moon, 2% visible
Pressure 29.96 in
Visibility 10.0 miles
Clouds Mostly Cloudy 2000 ft
Overcast 4200 ft
Dew Point 52 °F
Humidity 76%
Rainfall 0.00 in
Snow Depth Not available.
UV 0 out of 12
Pollen 1.40 out of 12
Ozone Good
PM2.5 Moderate
Flu Activity No Activity
METAR KRFD 250354Z 22005KT 10SM BKN020 OVC042 15/09 A2996 RMK AO2 SLP146 T01500089

More Conditions Fewer Conditions

Pressure 29.96 in
Visibility 10.0 miles
Clouds Mostly Cloudy 2000 ft
Overcast 4200 ft
Dew Point 52 °F
Humidity 76%
Rainfall 0.00 in
Snow Depth Not available.
UV 0 out of 12
Pollen 1.40 out of 12
Ozone Good
PM2.5 Moderate
Flu Activity No Activity
METAR KRFD 250354Z 22005KT 10SM BKN020 OVC042 15/09 A2996 RMK AO2 SLP146 T01500089

More Conditions Fewer Conditions

10-Day Weather Forecast

Almanac

Astronomy

Oct. 24, 2014 Rise Set
Actual Time 7:20 AM CDT 6:01 PM CDT
Civil Twilight 6:51 AM CDT 6:30 PM CDT
Nautical Twilight 6:18 AM CDT 7:02 PM CDT
Astronomical Twilight 5:46 AM CDT 7:35 PM CDT
Moon 7:59 AM CDT (10/24) 6:40 PM CDT (10/24)
Length of Visible Light 11h 38m
Length of Day
10h 41m
Tomorrow will be 2m 38s shorter.
New Moon, 2% of the Moon is Illuminated
Oct 25
New Moon
Oct 30
First Quarter
Nov 6
Full
Nov 14
Last Quarter
Nov 22
New

Yesterday's Extremes

State Highs State Lows

Community

WunderPhotos

Upload Photos

1,764,781 photos uploaded!

Nearby

Air Quality

  Air Quality AQ Index Pollutant
Yesterday Good
PM2.5
Yesterday Good
OZONE
Current Moderate
PM2.5
Current Good
OZONE
Friday Good
PM2.5
Saturday Good
PM2.5
Sunday Good
PM2.5
Monday Good
PM2.5
Tuesday Good
PM2.5
Wednesday Good
PM2.5

Snow Depth

Station Depth Elevation
No new snow has been reported.

Earthquake Activity

City Distance Mag. Time & Date
No recent earthquake activity has been reported nearby.
Minimum magnitude displayed is 2.5.

Coastal Water Temperatures

Place Temperature
No Stations Reporting

Nearby Weather Stations